Time;durP1;ratioP1;P1;durP2;ratioP2;P2;SDS_P1;SDS_P2;PMS_P1;PMS_P2;Temp;Humidity;BMP_temperature;BMP_pressure;BME280_temperature;BME280_humidity;BME280_pressure;Samples;Min_cycle;Max_cycle;Signal;HPM_P1;HPM_P2
2022/09/13 00:00:33;;;;;;;2.80;2.47;;;17.70;99.90;;;;;;5055085;28;20296;-52
2022/09/13 00:02:59;;;;;;;3.73;2.80;;;17.70;99.90;;;;;;5055048;28;20209;-55
2022/09/13 00:05:26;;;;;;;3.23;2.47;;;17.70;99.90;;;;;;5054801;28;20295;-49
2022/09/13 00:07:53;;;;;;;3.10;2.77;;;17.70;99.90;;;;;;5054678;28;20208;-53
2022/09/13 00:10:20;;;;;;;3.50;2.67;;;17.60;99.90;;;;;;5054841;28;20263;-53
2022/09/13 00:12:48;;;;;;;4.80;3.13;;;17.60;99.90;;;;;;5054880;28;20208;-56
2022/09/13 00:15:14;;;;;;;4.97;2.70;;;17.60;99.90;;;;;;5054688;28;20283;-55
2022/09/13 00:17:43;;;;;;;5.37;2.57;;;17.60;99.90;;;;;;5054302;28;20251;-49
2022/09/13 00:20:10;;;;;;;3.67;2.37;;;17.60;99.90;;;;;;5054447;28;20263;-54
2022/09/13 00:22:37;;;;;;;3.63;2.60;;;17.50;99.90;;;;;;5054585;28;20742;-56
2022/09/13 00:25:04;;;;;;;3.27;2.80;;;17.50;99.90;;;;;;5054602;28;20226;-50
2022/09/13 00:27:32;;;;;;;2.90;2.40;;;17.50;99.90;;;;;;5054556;28;20206;-53
2022/09/13 00:29:59;;;;;;;2.70;2.40;;;17.50;99.90;;;;;;5054369;28;20259;-54
2022/09/13 00:32:27;;;;;;;4.50;2.40;;;17.60;99.90;;;;;;5054695;28;20206;-51
2022/09/13 00:34:55;;;;;;;5.07;2.57;;;17.60;99.90;;;;;;5053898;28;20225;-52
2022/09/13 00:37:22;;;;;;;5.37;2.37;;;17.60;99.90;;;;;;5054246;28;20221;-51
2022/09/13 00:39:48;;;;;;;3.57;2.30;;;17.60;99.90;;;;;;5054460;28;20213;-53
2022/09/13 00:42:15;;;;;;;2.73;2.50;;;17.60;99.90;;;;;;5054321;28;20253;-53
2022/09/13 00:44:53;;;;;;;3.57;2.33;;;17.70;99.90;;;;;;5054104;28;20210;-53
2022/09/13 00:47:24;;;;;;;2.93;2.07;;;17.70;99.90;;;;;;5054140;28;20205;-56
2022/09/13 00:49:54;;;;;;;3.10;2.80;;;17.70;99.90;;;;;;5055103;28;20712;-57
2022/09/13 00:52:25;;;;;;;5.77;2.70;;;17.80;99.90;;;;;;5054695;28;20279;-56
2022/09/13 00:54:58;;;;;;;4.20;2.50;;;17.80;99.90;;;;;;5055145;28;20253;-58
2022/09/13 00:57:26;;;;;;;3.07;2.50;;;17.80;99.90;;;;;;5054002;28;20765;-56
2022/09/13 00:59:59;;;;;;;3.10;2.50;;;17.80;99.90;;;;;;5054084;28;20256;-58
2022/09/13 01:02:27;;;;;;;2.60;2.40;;;17.80;99.90;;;;;;5054462;28;20209;-57
2022/09/13 01:04:54;;;;;;;2.77;2.50;;;17.90;99.90;;;;;;5054106;28;20237;-54
2022/09/13 01:07:22;;;;;;;6.23;2.27;;;17.90;99.90;;;;;;5053758;28;20240;-49
2022/09/13 01:09:52;;;;;;;3.37;2.53;;;17.90;99.90;;;;;;5053787;28;20704;-53
2022/09/13 01:12:30;;;;;;;2.60;2.23;;;17.90;99.90;;;;;;5053542;28;20244;-54
2022/09/13 01:14:59;;;;;;;4.33;2.20;;;17.90;99.90;;;;;;5052483;28;20232;-52
2022/09/13 01:17:26;;;;;;;6.10;2.77;;;18.00;99.90;;;;;;5053285;28;20201;-49
2022/09/13 01:19:53;;;;;;;2.80;2.20;;;18.00;99.90;;;;;;5053662;28;20247;-50
2022/09/13 01:22:49;;;;;;;3.83;2.17;;;18.00;99.90;;;;;;5053196;28;20806;-55
2022/09/13 01:25:50;;;;;;;5.50;2.37;;;17.90;99.90;;;;;;5043091;28;20291;-50
2022/09/13 01:28:40;;;;;;;3.47;2.30;;;17.80;99.90;;;;;;5053076;28;20672;-53
2022/09/13 01:31:15;;;;;;;3.23;2.67;;;17.80;99.90;;;;;;5053258;28;20667;-50
2022/09/13 01:33:59;;;;;;;5.03;2.73;;;17.80;99.90;;;;;;5054440;28;20201;-48
2022/09/13 01:36:53;;;;;;;6.40;2.40;;;17.80;99.90;;;;;;5054967;28;20275;-49
2022/09/13 01:39:33;;;;;;;3.23;2.50;;;17.80;99.90;;;;;;5053234;28;20217;-49
2022/09/13 01:42:11;;;;;;;4.33;2.20;;;17.80;99.90;;;;;;5053230;28;20206;-56
2022/09/13 01:44:53;;;;;;;2.57;2.07;;;17.80;99.90;;;;;;5053732;28;20263;-50
2022/09/13 01:47:27;;;;;;;5.07;2.60;;;17.80;99.90;;;;;;5052414;28;20253;-53
2022/09/13 01:50:02;;;;;;;2.77;2.10;;;17.80;99.90;;;;;;5053157;28;20201;-53
2022/09/13 01:52:37;;;;;;;3.63;2.33;;;17.80;99.90;;;;;;5053111;28;20209;-51
2022/09/13 01:55:08;;;;;;;4.07;2.53;;;17.80;99.90;;;;;;5053082;28;20279;-52
2022/09/13 01:57:40;;;;;;;5.70;2.40;;;17.80;99.90;;;;;;5052507;28;20229;-52
2022/09/13 02:00:11;;;;;;;2.93;2.63;;;17.80;99.90;;;;;;5052902;28;20263;-51
2022/09/13 02:02:43;;;;;;;3.40;2.40;;;17.80;99.90;;;;;;5052917;28;20233;-55
2022/09/13 02:05:14;;;;;;;5.53;2.47;;;17.80;99.90;;;;;;5052759;28;20233;-49
2022/09/13 02:07:44;;;;;;;4.83;2.80;;;17.80;99.90;;;;;;5052439;28;20209;-54
2022/09/13 02:10:17;;;;;;;4.40;2.17;;;17.80;99.90;;;;;;5052813;28;20209;-56
2022/09/13 02:12:46;;;;;;;3.23;2.57;;;17.80;99.90;;;;;;5052478;28;20209;-49
2022/09/13 02:15:17;;;;;;;3.70;2.33;;;17.80;99.90;;;;;;5052582;28;20593;-55
2022/09/13 02:17:49;;;;;;;5.00;2.30;;;17.80;99.90;;;;;;5052273;28;20206;-54
2022/09/13 02:20:20;;;;;;;3.60;2.40;;;17.80;99.90;;;;;;5052580;28;20205;-51
2022/09/13 02:22:53;;;;;;;2.47;2.07;;;17.90;99.90;;;;;;5052492;28;20214;-53
2022/09/13 02:25:22;;;;;;;3.80;2.20;;;17.80;99.90;;;;;;5052103;28;20237;-55
2022/09/13 02:27:53;;;;;;;4.03;2.50;;;17.80;99.90;;;;;;5052180;28;20582;-52
2022/09/13 02:30:21;;;;;;;2.90;2.40;;;17.80;99.90;;;;;;5052389;28;20275;-56
2022/09/13 02:32:54;;;;;;;3.53;2.63;;;17.80;99.90;;;;;;5052483;28;20209;-52
2022/09/13 02:35:25;;;;;;;3.60;2.23;;;17.80;99.90;;;;;;5052079;28;20257;-55
2022/09/13 02:37:57;;;;;;;3.83;2.10;;;17.80;99.90;;;;;;5051624;28;20753;-53
2022/09/13 02:40:28;;;;;;;3.03;2.33;;;17.80;99.90;;;;;;5051857;28;20668;-55
2022/09/13 02:43:01;;;;;;;2.53;2.27;;;17.80;99.90;;;;;;5052115;28;20558;-53
2022/09/13 02:45:31;;;;;;;4.37;2.37;;;17.80;99.90;;;;;;5051771;28;20279;-54
2022/09/13 02:48:04;;;;;;;2.63;2.27;;;17.80;99.90;;;;;;5051732;28;20708;-56
2022/09/13 02:50:45;;;;;;;3.50;2.37;;;17.80;99.90;;;;;;5052036;28;20206;-52
2022/09/13 02:53:18;;;;;;;3.50;2.37;;;17.80;99.90;;;;;;5051763;28;20214;-51
2022/09/13 02:55:53;;;;;;;3.10;2.10;;;17.80;99.90;;;;;;5051772;28;20599;-55
2022/09/13 02:58:25;;;;;;;8.80;2.60;;;17.80;99.90;;;;;;5051718;28;20259;-50
2022/09/13 03:00:52;;;;;;;2.93;2.43;;;17.80;99.90;;;;;;5051854;28;20624;-52
2022/09/13 03:03:20;;;;;;;2.77;2.43;;;17.80;99.90;;;;;;5052106;28;20206;-53
2022/09/13 03:05:46;;;;;;;3.83;2.20;;;17.80;99.90;;;;;;5051536;28;20237;-52
2022/09/13 03:08:16;;;;;;;3.70;2.50;;;17.80;99.90;;;;;;5051671;28;20243;-49
2022/09/13 03:10:54;;;;;;;4.03;2.67;;;17.80;99.90;;;;;;5051579;28;20205;-52
2022/09/13 03:13:34;;;;;;;6.10;2.83;;;17.80;99.90;;;;;;5051985;28;20209;-54
2022/09/13 03:16:14;;;;;;;4.70;2.30;;;17.80;99.90;;;;;;5051186;28;20764;-53
2022/09/13 03:18:52;;;;;;;3.20;2.50;;;17.80;99.90;;;;;;5051638;28;20290;-54
2022/09/13 03:21:33;;;;;;;5.20;2.33;;;17.90;99.90;;;;;;5051571;28;20677;-54
2022/09/13 03:24:09;;;;;;;13.73;2.50;;;17.90;99.90;;;;;;5051528;28;20679;-51
2022/09/13 03:26:44;;;;;;;2.80;2.03;;;17.90;99.90;;;;;;5051453;28;20221;-54
2022/09/13 03:29:20;;;;;;;5.63;2.40;;;17.90;99.90;;;;;;5051725;28;20255;-51
2022/09/13 03:31:53;;;;;;;5.63;2.17;;;17.90;99.90;;;;;;5051623;28;20263;-55
2022/09/13 03:34:32;;;;;;;2.80;2.00;;;17.90;99.90;;;;;;5051695;28;20209;-49
2022/09/13 03:37:06;;;;;;;4.57;2.50;;;17.90;99.90;;;;;;5051397;28;20263;-52
2022/09/13 03:39:40;;;;;;;3.30;2.47;;;17.90;99.90;;;;;;5051320;28;20221;-51
2022/09/13 03:42:18;;;;;;;3.53;2.93;;;17.90;99.90;;;;;;5051387;28;20202;-53
2022/09/13 03:44:48;;;;;;;7.43;2.77;;;17.90;99.90;;;;;;5051554;28;20263;-55
2022/09/13 03:47:17;;;;;;;5.57;2.40;;;17.90;99.90;;;;;;5051240;28;20611;-54
2022/09/13 03:49:45;;;;;;;4.73;2.60;;;17.90;99.90;;;;;;5051542;28;20622;-55
2022/09/13 03:52:12;;;;;;;3.77;2.50;;;17.90;99.90;;;;;;5051302;28;20256;-53
2022/09/13 03:54:39;;;;;;;4.53;2.67;;;17.70;99.90;;;;;;5050979;28;20210;-51
2022/09/13 03:57:10;;;;;;;3.73;2.60;;;17.60;99.90;;;;;;5051186;28;20225;-54
2022/09/13 03:59:39;;;;;;;3.43;2.93;;;17.60;1.00;;;;;;5051141;28;20225;-54
2022/09/13 04:02:10;;;;;;;3.90;2.87;;;17.50;1.00;;;;;;5051290;28;20243;-55
2022/09/13 04:04:37;;;;;;;4.00;2.80;;;17.50;99.90;;;;;;5051003;28;20205;-50
2022/09/13 04:07:05;;;;;;;3.07;2.73;;;17.30;99.90;;;;;;5050829;28;20209;-51
2022/09/13 04:09:32;;;;;;;4.47;3.10;;;17.40;1.00;;;;;;5051033;28;20210;-53
2022/09/13 04:11:59;;;;;;;5.43;2.60;;;17.30;1.00;;;;;;5054400;28;20206;-49
2022/09/13 04:14:27;;;;;;;4.53;3.00;;;17.30;99.90;;;;;;5054832;28;20201;-52
2022/09/13 04:16:54;;;;;;;4.00;3.20;;;17.30;99.90;;;;;;5054566;28;20245;-53
2022/09/13 04:19:21;;;;;;;5.47;2.67;;;17.20;99.90;;;;;;5054536;28;20222;-51
2022/09/13 04:21:48;;;;;;;6.23;2.90;;;17.20;1.00;;;;;;5054556;28;20775;-57
2022/09/13 04:24:17;;;;;;;6.33;2.80;;;17.20;42.70;;;;;;5054486;28;20236;-54
2022/09/13 04:26:44;;;;;;;3.77;2.90;;;17.20;99.90;;;;;;5054596;28;20225;-54
2022/09/13 04:29:11;;;;;;;5.67;2.80;;;17.20;99.90;;;;;;5054431;28;20214;-50
2022/09/13 04:31:37;;;;;;;4.70;3.20;;;17.10;1.00;;;;;;5054369;28;20210;-52
2022/09/13 04:34:05;;;;;;;5.03;2.90;;;17.10;1.00;;;;;;5054439;28;20255;-51
2022/09/13 04:36:32;;;;;;;3.50;2.97;;;17.00;1.00;;;;;;5054046;28;20283;-51
2022/09/13 04:38:59;;;;;;;4.03;2.83;;;17.00;1.00;;;;;;5054483;28;20261;-55
2022/09/13 04:41:27;;;;;;;6.20;2.90;;;17.00;86.00;;;;;;5054667;28;20205;-55
2022/09/13 04:43:54;;;;;;;3.40;2.80;;;17.00;28.20;;;;;;5054261;28;20210;-52
2022/09/13 04:46:21;;;;;;;6.03;2.67;;;17.00;99.90;;;;;;5053914;28;20267;-51
2022/09/13 04:48:49;;;;;;;4.70;3.20;;;17.00;99.90;;;;;;5053924;28;20630;-52
2022/09/13 04:51:16;;;;;;;6.37;3.33;;;17.00;99.90;;;;;;5054271;28;20206;-54
2022/09/13 04:53:43;;;;;;;5.03;2.70;;;17.00;99.90;;;;;;5054174;28;20222;-54
2022/09/13 04:56:11;;;;;;;4.97;2.80;;;16.90;99.90;;;;;;5053777;28;20222;-52
2022/09/13 04:58:39;;;;;;;6.83;3.20;;;16.90;1.00;;;;;;5054084;28;20212;-54
2022/09/13 05:01:07;;;;;;;3.10;2.73;;;16.90;1.00;;;;;;5054056;28;20201;-56
2022/09/13 05:03:35;;;;;;;4.57;2.80;;;16.90;1.00;;;;;;5053788;28;20209;-52
2022/09/13 05:06:03;;;;;;;4.13;2.80;;;16.90;1.00;;;;;;5053327;28;20264;-50
2022/09/13 05:08:30;;;;;;;3.33;2.80;;;17.00;1.00;;;;;;5053914;28;20202;-60
2022/09/13 05:10:57;;;;;;;5.30;3.00;;;16.90;1.00;;;;;;5054112;28;20213;-53
2022/09/13 05:13:24;;;;;;;6.47;2.80;;;16.90;1.00;;;;;;5053816;28;20210;-57
2022/09/13 05:15:55;;;;;;;4.70;2.90;;;17.00;1.00;;;;;;5053337;28;20229;-55
2022/09/13 05:18:21;;;;;;;4.70;3.20;;;17.00;1.00;;;;;;5053890;28;20217;-51
2022/09/13 05:20:48;;;;;;;6.73;2.90;;;17.00;1.00;;;;;;5053600;28;20225;-52
2022/09/13 05:23:15;;;;;;;3.90;2.63;;;17.00;1.00;;;;;;5052564;28;20213;-53
2022/09/13 05:25:41;;;;;;;5.23;2.80;;;17.00;99.90;;;;;;5053309;28;20283;-56
2022/09/13 05:28:08;;;;;;;3.70;2.70;;;17.00;99.90;;;;;;5053095;28;20206;-56
2022/09/13 05:30:34;;;;;;;3.53;2.93;;;17.10;99.90;;;;;;5053093;28;20296;-52
2022/09/13 05:33:02;;;;;;;4.73;2.87;;;17.10;99.90;;;;;;5053362;28;20260;-52
2022/09/13 05:35:29;;;;;;;4.47;2.70;;;17.10;99.90;;;;;;5053350;28;20226;-54
2022/09/13 05:37:56;;;;;;;2.70;2.30;;;17.10;99.90;;;;;;5053063;28;20585;-51
2022/09/13 05:40:22;;;;;;;3.37;2.67;;;17.10;25.20;;;;;;5053062;28;20225;-54
2022/09/13 05:42:52;;;;;;;3.50;2.60;;;17.10;99.90;;;;;;5053241;28;20722;-53
2022/09/13 05:45:19;;;;;;;3.10;2.80;;;17.20;93.30;;;;;;5052854;28;20355;-52
2022/09/13 05:47:49;;;;;;;4.63;2.37;;;17.20;1.00;;;;;;5053057;28;20209;-53
2022/09/13 05:50:17;;;;;;;5.57;2.60;;;17.30;54.40;;;;;;5053132;28;20205;-52
2022/09/13 05:52:44;;;;;;;6.53;3.00;;;17.30;99.90;;;;;;5052808;28;20237;-53
2022/09/13 05:55:10;;;;;;;4.03;2.87;;;17.30;99.90;;;;;;5052870;28;20279;-53
2022/09/13 05:57:37;;;;;;;6.40;2.80;;;17.30;1.00;;;;;;5052682;28;20210;-56
2022/09/13 06:00:04;;;;;;;6.07;2.67;;;17.40;1.00;;;;;;5052875;28;20704;-54
2022/09/13 06:02:31;;;;;;;3.80;2.87;;;17.40;1.00;;;;;;5052941;28;20263;-54
2022/09/13 06:04:58;;;;;;;4.50;3.07;;;17.40;1.00;;;;;;5052691;28;20244;-56
2022/09/13 06:07:26;;;;;;;3.87;2.67;;;17.40;68.70;;;;;;5052358;28;20213;-56
2022/09/13 06:09:53;;;;;;;4.30;2.90;;;17.50;99.90;;;;;;5052567;28;20202;-54
2022/09/13 06:12:19;;;;;;;4.93;2.73;;;17.50;99.90;;;;;;5052274;28;20201;-54
2022/09/13 06:14:46;;;;;;;3.77;2.77;;;17.50;99.90;;;;;;5052194;28;20202;-53
2022/09/13 06:17:13;;;;;;;5.87;3.23;;;17.50;99.90;;;;;;5052346;28;20205;-49
2022/09/13 06:19:39;;;;;;;4.67;2.63;;;17.50;99.90;;;;;;5052239;28;20696;-54
2022/09/13 06:22:06;;;;;;;5.10;2.80;;;17.50;99.90;;;;;;5052387;28;20202;-54
2022/09/13 06:24:36;;;;;;;4.40;2.80;;;17.60;99.90;;;;;;5052288;28;20210;-54
2022/09/13 06:27:03;;;;;;;5.07;2.77;;;17.60;99.90;;;;;;5052141;28;20201;-53
2022/09/13 06:29:29;;;;;;;5.90;2.90;;;17.60;15.00;;;;;;5052500;28;20633;-50
2022/09/13 06:31:56;;;;;;;5.87;2.57;;;17.60;1.00;;;;;;5052400;28;20559;-49
2022/09/13 06:34:23;;;;;;;5.40;2.90;;;17.70;36.30;;;;;;5053014;28;20201;-50
2022/09/13 06:36:50;;;;;;;3.30;3.00;;;17.70;1.00;;;;;;5052032;28;20643;-49
2022/09/13 06:39:17;;;;;;;3.13;2.70;;;17.80;1.00;;;;;;5051982;28;20283;-48
2022/09/13 06:41:45;;;;;;;8.30;3.23;;;17.80;1.00;;;;;;5052256;28;20452;-48
2022/09/13 06:44:11;;;;;;;4.43;3.30;;;17.80;1.00;;;;;;5051736;28;20665;-48
2022/09/13 06:46:38;;;;;;;4.50;2.90;;;17.90;1.00;;;;;;5051681;28;20229;-51
2022/09/13 06:49:06;;;;;;;4.50;2.93;;;17.80;32.40;;;;;;5052109;28;20244;-49
2022/09/13 06:51:34;;;;;;;3.40;2.90;;;17.90;1.00;;;;;;5051638;28;20255;-51
2022/09/13 06:54:02;;;;;;;5.23;2.60;;;17.90;67.00;;;;;;5051738;28;20206;-49
2022/09/13 06:56:31;;;;;;;5.80;2.70;;;17.90;1.00;;;;;;5051733;28;20233;-48
2022/09/13 06:59:01;;;;;;;4.00;2.67;;;17.90;1.00;;;;;;5051944;28;20209;-49
2022/09/13 07:01:30;;;;;;;5.30;2.70;;;17.90;99.90;;;;;;5051877;28;20266;-54
2022/09/13 07:03:59;;;;;;;5.50;2.83;;;18.10;1.00;;;;;;5051819;28;20612;-55
2022/09/13 07:06:28;;;;;;;8.10;3.30;;;18.10;1.00;;;;;;5050935;28;20291;-52
2022/09/13 07:08:56;;;;;;;3.87;2.80;;;18.10;1.00;;;;;;5051980;28;20255;-52
2022/09/13 07:11:24;;;;;;;7.30;2.90;;;18.20;99.90;;;;;;5051838;28;20198;-53
2022/09/13 07:13:52;;;;;;;6.50;3.17;;;18.30;99.90;;;;;;5051828;28;20206;-57
2022/09/13 07:16:22;;;;;;;4.07;2.83;;;18.40;99.90;;;;;;5051381;28;20642;-53
2022/09/13 07:18:52;;;;;;;4.37;2.83;;;18.50;1.00;;;;;;5051464;28;20210;-49
2022/09/13 07:21:19;;;;;;;4.90;2.43;;;18.50;1.00;;;;;;5051762;28;20253;-55
2022/09/13 07:23:46;;;;;;;5.80;2.90;;;18.60;1.00;;;;;;5051652;28;20628;-49
2022/09/13 07:26:13;;;;;;;4.63;3.10;;;18.70;1.00;;;;;;5051313;28;20287;-50
2022/09/13 07:28:43;;;;;;;3.83;2.90;;;18.70;99.90;;;;;;5051550;28;20634;-53
2022/09/13 07:31:12;;;;;;;7.33;3.20;;;18.80;99.90;;;;;;5050959;28;20247;-52
2022/09/13 07:33:41;;;;;;;6.00;2.53;;;18.80;99.90;;;;;;5050718;28;20243;-51
2022/09/13 07:36:10;;;;;;;5.77;3.10;;;19.00;99.90;;;;;;5051234;28;20581;-57
2022/09/13 07:38:38;;;;;;;4.27;2.90;;;19.00;99.90;;;;;;5051230;28;20579;-54
2022/09/13 07:41:07;;;;;;;3.53;2.70;;;19.10;99.90;;;;;;5051265;28;20232;-53
2022/09/13 07:43:35;;;;;;;4.47;2.70;;;19.30;99.90;;;;;;5051310;28;20691;-48
2022/09/13 07:46:04;;;;;;;6.73;2.50;;;19.40;99.90;;;;;;5052830;28;20574;-49
2022/09/13 07:48:33;;;;;;;5.70;2.93;;;19.60;99.90;;;;;;5055183;28;20731;-49
2022/09/13 07:51:03;;;;;;;6.70;2.97;;;19.70;99.90;;;;;;5055231;28;20206;-48
2022/09/13 07:53:31;;;;;;;4.10;2.83;;;19.70;67.90;;;;;;5056115;28;20244;-55
2022/09/13 07:56:02;;;;;;;3.43;2.60;;;19.80;1.00;;;;;;5055841;28;20252;-55
2022/09/13 07:58:29;;;;;;;5.83;2.53;;;19.90;99.90;;;;;;5055348;28;20237;-53
2022/09/13 08:01:00;;;;;;;3.77;2.90;;;20.00;1.00;;;;;;5054949;28;20240;-56
2022/09/13 08:03:29;;;;;;;5.83;2.93;;;20.10;1.00;;;;;;5054901;28;20236;-53
2022/09/13 08:05:55;;;;;;;3.00;2.20;;;20.20;1.00;;;;;;5054613;28;20233;-55
2022/09/13 08:08:23;;;;;;;5.47;2.60;;;20.30;99.90;;;;;;5054664;28;20221;-54
2022/09/13 08:10:50;;;;;;;5.90;2.20;;;20.40;99.90;;;;;;5054870;28;20227;-52
2022/09/13 08:13:16;;;;;;;4.00;2.67;;;20.60;1.00;;;;;;5054713;28;20206;-53
2022/09/13 08:15:43;;;;;;;5.27;3.10;;;20.70;1.00;;;;;;5054845;28;20230;-53
2022/09/13 08:18:10;;;;;;;7.07;2.97;;;20.70;1.00;;;;;;5054386;28;20255;-55
2022/09/13 08:20:37;;;;;;;6.87;3.00;;;20.80;1.00;;;;;;5054628;28;20230;-56
2022/09/13 08:23:04;;;;;;;4.83;2.60;;;20.90;99.90;;;;;;5054645;28;20206;-51
2022/09/13 08:25:34;;;;;;;6.40;2.57;;;20.90;99.90;;;;;;5054424;28;20230;-53
2022/09/13 08:28:01;;;;;;;5.77;2.40;;;21.00;99.90;;;;;;5054509;28;20296;-52
2022/09/13 08:30:31;;;;;;;5.13;2.70;;;21.20;99.90;;;;;;5054668;28;20205;-55
2022/09/13 08:32:59;;;;;;;4.50;2.43;;;21.20;99.90;;;;;;5054416;28;20224;-54
2022/09/13 08:35:25;;;;;;;4.17;2.80;;;21.30;99.90;;;;;;5054354;28;20263;-52
2022/09/13 08:37:52;;;;;;;4.60;2.90;;;21.30;99.90;;;;;;5054158;28;20869;-55
2022/09/13 08:40:19;;;;;;;4.77;2.80;;;21.40;99.90;;;;;;5054323;28;20221;-56
2022/09/13 08:42:53;;;;;;;4.23;2.53;;;21.40;99.90;;;;;;5054254;28;20259;-55
2022/09/13 08:45:21;;;;;;;4.23;2.80;;;21.60;99.90;;;;;;5054262;28;20225;-53
2022/09/13 08:47:54;;;;;;;4.00;2.60;;;21.70;99.90;;;;;;5053885;28;20209;-55
2022/09/13 08:50:23;;;;;;;3.30;2.50;;;21.80;99.90;;;;;;5053904;28;20637;-58
2022/09/13 08:53:15;;;;;;;4.40;2.90;;;21.80;99.90;;;;;;5054427;28;20267;-56
2022/09/13 08:55:50;;;;;;;4.30;3.00;;;21.70;99.90;;;;;;5053960;28;20229;-53
2022/09/13 08:58:35;;;;;;;5.53;2.97;;;21.70;99.90;;;;;;5053776;28;20347;-54
2022/09/13 09:01:07;;;;;;;4.67;3.10;;;21.60;99.90;;;;;;5053768;28;20229;-53
2022/09/13 09:03:42;;;;;;;6.23;3.40;;;21.70;99.90;;;;;;5054050;28;20210;-54
2022/09/13 09:06:14;;;;;;;7.50;3.27;;;21.70;99.90;;;;;;5053441;28;20237;-57
2022/09/13 09:08:46;;;;;;;6.40;3.50;;;21.70;99.90;;;;;;5053651;28;20255;-53
2022/09/13 09:11:25;;;;;;;5.90;2.90;;;21.80;99.90;;;;;;5053689;28;20292;-54
2022/09/13 09:13:59;;;;;;;5.63;3.03;;;21.90;99.90;;;;;;5053682;28;20213;-57
2022/09/13 09:16:32;;;;;;;9.10;3.70;;;22.00;99.90;;;;;;5053417;28;20279;-55
2022/09/13 09:19:05;;;;;;;5.50;3.33;;;22.20;99.90;;;;;;5053513;28;20220;-56
2022/09/13 09:21:33;;;;;;;9.30;3.33;;;22.10;99.90;;;;;;5053286;28;20226;-54
2022/09/13 09:24:02;;;;;;;6.30;3.70;;;22.30;99.90;;;;;;5053242;28;20210;-57
2022/09/13 09:26:30;;;;;;;5.63;3.80;;;22.30;99.90;;;;;;5053277;28;20260;-54
2022/09/13 09:29:01;;;;;;;6.07;4.17;;;22.40;99.90;;;;;;5053175;28;20206;-53
2022/09/13 09:31:38;;;;;;;4.47;3.77;;;22.20;99.90;;;;;;5053547;28;20206;-54
2022/09/13 09:34:16;;;;;;;6.37;3.00;;;22.30;99.90;;;;;;5053346;28;20209;-55
2022/09/13 09:36:49;;;;;;;6.83;3.87;;;22.50;99.90;;;;;;5053199;28;20256;-53
2022/09/13 09:39:16;;;;;;;7.03;3.90;;;22.60;99.90;;;;;;5053229;28;20205;-54
2022/09/13 09:41:43;;;;;;;10.43;4.03;;;22.70;99.90;;;;;;5053180;28;20237;-54
2022/09/13 09:44:19;;;;;;;5.03;3.50;;;22.80;99.90;;;;;;5052758;28;20272;-53
2022/09/13 09:46:50;;;;;;;8.07;4.60;;;22.90;99.90;;;;;;5052576;28;20573;-50
2022/09/13 09:52:10;;;;;;;9.97;4.10;;;23.00;99.90;;;;;;5052927;28;20576;-55
2022/09/13 09:54:37;;;;;;;8.10;3.73;;;23.00;99.90;;;;;;5052767;28;20205;-54
2022/09/13 09:57:06;;;;;;;7.13;3.90;;;23.10;99.90;;;;;;5052397;28;20212;-54
2022/09/13 09:59:36;;;;;;;9.33;4.37;;;23.10;99.90;;;;;;5052764;28;20292;-54
2022/09/13 10:02:15;;;;;;;9.13;3.83;;;23.20;99.90;;;;;;5053198;28;20861;-58
2022/09/13 10:04:42;;;;;;;5.97;3.43;;;23.30;99.90;;;;;;5052420;28;20263;-55
2022/09/13 10:07:28;;;;;;;7.30;3.83;;;23.40;99.90;;;;;;5052532;28;20217;-52
2022/09/13 10:10:04;;;;;;;9.03;4.57;;;23.40;99.90;;;;;;5052317;28;20190;-55
2022/09/13 10:12:33;;;;;;;7.07;4.13;;;23.40;99.90;;;;;;5052825;28;20304;-56
2022/09/13 10:15:14;;;;;;;7.23;3.93;;;23.60;99.90;;;;;;5052554;28;20593;-54
2022/09/13 10:17:40;;;;;;;5.97;3.60;;;23.80;99.90;;;;;;5052094;28;20831;-54
2022/09/13 10:20:25;;;;;;;7.57;3.80;;;23.80;99.90;;;;;;5051963;28;20210;-54
2022/09/13 10:23:18;;;;;;;5.90;4.20;;;23.70;99.90;;;;;;5052449;28;20206;-54
2022/09/13 10:25:56;;;;;;;5.93;3.93;;;23.70;99.90;;;;;;5052151;28;20316;-57
2022/09/13 10:28:24;;;;;;;6.67;3.77;;;23.80;99.90;;;;;;5052089;28;20267;-55
2022/09/13 10:30:56;;;;;;;12.33;4.33;;;23.80;99.90;;;;;;5051997;28;20740;-56
2022/09/13 10:33:28;;;;;;;6.13;3.60;;;23.90;99.90;;;;;;5052365;28;20212;-49
2022/09/13 10:35:57;;;;;;;6.43;3.90;;;24.00;99.90;;;;;;5051895;28;20232;-56
2022/09/13 10:38:29;;;;;;;8.37;4.00;;;24.10;99.90;;;;;;5052272;28;20275;-56
2022/09/13 10:40:57;;;;;;;6.90;4.30;;;24.30;99.90;;;;;;5051850;28;20650;-56
2022/09/13 10:43:27;;;;;;;8.67;4.67;;;24.40;99.90;;;;;;5051838;28;20630;-54
2022/09/13 10:45:55;;;;;;;6.53;3.83;;;24.60;99.90;;;;;;5051475;28;20236;-55
2022/09/13 10:48:23;;;;;;;9.27;4.37;;;24.60;99.90;;;;;;5052111;28;20206;-54
2022/09/13 10:51:05;;;;;;;8.37;4.47;;;24.40;99.90;;;;;;5052064;28;20662;-53
2022/09/13 10:53:37;;;;;;;7.27;4.20;;;24.50;99.90;;;;;;5051657;28;20206;-53
2022/09/13 10:56:05;;;;;;;7.83;4.03;;;24.50;99.90;;;;;;5051581;28;20229;-55
2022/09/13 10:58:31;;;;;;;6.27;3.60;;;24.50;99.90;;;;;;5051962;28;20205;-54
2022/09/13 11:01:25;;;;;;;5.77;3.17;;;24.30;99.90;;;;;;5051480;28;20225;-53
2022/09/13 11:04:28;;;;;;;8.07;2.90;;;24.20;99.90;;;;;;5051699;28;20213;-52
2022/09/13 11:07:04;;;;;;;5.90;3.13;;;24.40;99.90;;;;;;5032517;28;20225;-49
2022/09/13 11:09:36;;;;;;;7.13;3.00;;;24.30;99.90;;;;;;5052063;28;20267;-50
2022/09/13 11:12:17;;;;;;;8.03;4.20;;;24.00;99.90;;;;;;5051511;28;20228;-54
2022/09/13 11:14:53;;;;;;;10.30;4.57;;;24.00;99.90;;;;;;5051835;28;20213;-52
2022/09/13 11:17:34;;;;;;;7.83;3.80;;;24.00;99.90;;;;;;5051535;28;20267;-53
2022/09/13 11:20:26;;;;;;;7.43;3.83;;;24.20;99.90;;;;;;5051819;28;20263;-48
2022/09/13 11:23:22;;;;;;;5.00;3.17;;;24.40;99.90;;;;;;5055801;28;20255;-56
2022/09/13 11:26:04;;;;;;;5.43;3.53;;;24.50;99.90;;;;;;5055967;28;20226;-57
2022/09/13 11:28:47;;;;;;;6.27;3.43;;;24.60;99.90;;;;;;5056485;28;20260;-58
2022/09/13 11:31:23;;;;;;;7.17;4.00;;;24.80;99.90;;;;;;5056698;28;20209;-49
2022/09/13 11:34:06;;;;;;;7.03;3.83;;;24.80;99.90;;;;;;5056994;28;20274;-48
2022/09/13 11:36:50;;;;;;;8.20;3.83;;;24.50;99.90;;;;;;5055466;28;20229;-51
2022/09/13 11:39:30;;;;;;;7.63;3.40;;;24.50;99.90;;;;;;5055527;28;20205;-49
2022/09/13 11:42:06;;;;;;;9.43;3.30;;;24.70;99.90;;;;;;5055606;28;20221;-55
2022/09/13 11:45:08;;;;;;;7.90;3.90;;;25.00;99.90;;;;;;5055359;28;20248;-52
2022/09/13 11:47:45;;;;;;;5.87;3.53;;;24.90;99.90;;;;;;5055327;28;20209;-49
2022/09/13 11:50:36;;;;;;;7.07;3.50;;;24.80;99.90;;;;;;5055577;28;20558;-53
2022/09/13 11:53:20;;;;;;;7.47;3.47;;;24.90;99.90;;;;;;5055275;28;20344;-55
2022/09/13 11:55:51;;;;;;;10.10;3.70;;;24.70;99.90;;;;;;5054658;28;20273;-54
2022/09/13 11:58:23;;;;;;;7.87;3.93;;;24.80;99.90;;;;;;5055097;28;20267;-53
2022/09/13 12:00:54;;;;;;;7.43;3.57;;;24.80;99.90;;;;;;5054665;28;20695;-55
2022/09/13 12:03:25;;;;;;;7.57;3.57;;;24.90;99.90;;;;;;5055236;28;20213;-50
2022/09/13 12:05:57;;;;;;;7.37;4.20;;;25.00;99.90;;;;;;5054706;28;20266;-49
2022/09/13 12:08:29;;;;;;;9.53;4.63;;;24.90;99.90;;;;;;5054838;28;20214;-51
2022/09/13 12:10:58;;;;;;;7.90;4.03;;;24.60;99.90;;;;;;5054995;28;20210;-53
2022/09/13 12:13:27;;;;;;;6.70;3.93;;;24.70;99.90;;;;;;5054941;28;20206;-48
2022/09/13 12:15:57;;;;;;;5.60;3.60;;;24.90;99.90;;;;;;5054525;28;20226;-53
2022/09/13 12:18:28;;;;;;;8.30;4.17;;;25.00;99.90;;;;;;5054756;28;20206;-56
2022/09/13 12:20:59;;;;;;;7.53;3.60;;;25.00;99.90;;;;;;5054314;28;20206;-53
2022/09/13 12:23:32;;;;;;;5.70;3.50;;;25.20;99.90;;;;;;5054934;28;20578;-53
2022/09/13 12:26:03;;;;;;;8.17;3.83;;;25.50;99.90;;;;;;5054443;28;20226;-54
2022/09/13 12:28:35;;;;;;;7.40;3.93;;;25.70;99.90;;;;;;5055040;28;20680;-56
2022/09/13 12:31:07;;;;;;;8.60;3.63;;;25.60;99.90;;;;;;5054565;28;20206;-55
2022/09/13 12:33:34;;;;;;;8.90;3.60;;;25.60;99.90;;;;;;5055448;28;20206;-54
2022/09/13 12:36:31;;;;;;;7.67;4.13;;;25.50;99.90;;;;;;5054792;28;20233;-57
2022/09/13 12:39:37;;;;;;;7.87;4.07;;;25.20;99.90;;;;;;5054755;28;20259;-57
2022/09/13 12:42:34;;;;;;;10.70;4.07;;;25.10;99.90;;;;;;5054530;28;20290;-56
2022/09/13 12:45:15;;;;;;;6.77;4.07;;;25.10;99.90;;;;;;5054839;28;20225;-53
2022/09/13 12:48:12;;;;;;;9.60;3.90;;;25.00;99.90;;;;;;5053902;28;20262;-50
2022/09/13 12:51:05;;;;;;;8.23;4.37;;;25.30;99.90;;;;;;5054165;28;20205;-53
2022/09/13 12:54:17;;;;;;;9.07;4.07;;;25.40;99.90;;;;;;5051187;28;20259;-53
2022/09/13 12:57:00;;;;;;;9.03;4.83;;;25.50;99.90;;;;;;5053839;28;20233;-55
2022/09/13 12:59:40;;;;;;;6.17;4.83;;;25.30;99.90;;;;;;5053834;28;20255;-50
2022/09/13 13:02:26;;;;;;;9.53;4.03;;;25.20;99.90;;;;;;5053838;28;20229;-52
2022/09/13 13:04:57;;;;;;;7.20;4.30;;;25.00;99.90;;;;;;5053446;28;20271;-51
2022/09/13 13:07:24;;;;;;;6.87;4.07;;;25.10;99.90;;;;;;5053738;28;20275;-51
2022/09/13 13:09:54;;;;;;;6.10;4.37;;;25.00;99.90;;;;;;5053608;28;20210;-54
2022/09/13 13:12:31;;;;;;;6.80;4.63;;;24.90;99.90;;;;;;5053461;28;20202;-52
2022/09/13 13:14:58;;;;;;;10.83;5.03;;;25.00;99.90;;;;;;5053351;28;20229;-51